createdAt,value
2023-01-26T00:00:13.973Z,0.00
2023-01-26T00:01:13.990Z,0.00
2023-01-26T00:02:13.940Z,0.00
2023-01-26T00:03:13.896Z,0.00
2023-01-26T00:04:13.936Z,0.00
2023-01-26T00:05:14.003Z,0.00
2023-01-26T00:06:13.915Z,0.00
2023-01-26T00:07:13.866Z,0.00
2023-01-26T00:08:13.902Z,0.00
2023-01-26T00:09:13.812Z,0.00
2023-01-26T00:10:13.820Z,0.00
2023-01-26T00:11:13.826Z,0.00
2023-01-26T00:12:13.845Z,0.00
2023-01-26T00:13:13.783Z,0.00
2023-01-26T00:14:13.800Z,0.00
2023-01-26T00:15:13.939Z,0.00
2023-01-26T00:16:13.910Z,0.00
2023-01-26T00:17:13.691Z,0.00
2023-01-26T00:18:13.704Z,0.00
2023-01-26T00:19:13.704Z,0.00
2023-01-26T00:20:13.831Z,0.00
2023-01-26T00:21:13.647Z,0.00
2023-01-26T00:22:13.674Z,0.00
2023-01-26T00:23:13.718Z,0.00
2023-01-26T00:24:13.683Z,0.00
2023-01-26T00:25:13.614Z,0.00
2023-01-26T00:26:13.704Z,0.00
2023-01-26T00:27:13.607Z,0.00
2023-01-26T00:28:13.606Z,0.00
2023-01-26T00:29:13.632Z,0.00
2023-01-26T00:30:13.843Z,0.00
2023-01-26T00:31:13.613Z,0.00
2023-01-26T00:32:13.568Z,0.00
2023-01-26T00:33:13.504Z,0.00
2023-01-26T00:34:13.626Z,0.00
2023-01-26T00:35:13.571Z,0.00
2023-01-26T00:36:13.572Z,0.00
2023-01-26T00:37:13.500Z,0.00
2023-01-26T00:38:13.495Z,0.00
2023-01-26T00:39:13.442Z,0.00
2023-01-26T00:40:13.683Z,0.00
2023-01-26T00:41:13.461Z,0.00
2023-01-26T00:42:13.409Z,0.00
2023-01-26T00:43:13.397Z,0.00
2023-01-26T00:44:13.427Z,0.00
2023-01-26T00:45:13.368Z,0.00
2023-01-26T00:46:13.437Z,0.00
2023-01-26T00:47:13.426Z,0.00
2023-01-26T00:48:13.344Z,0.00
2023-01-26T00:49:13.322Z,0.00
2023-01-26T00:50:13.680Z,0.00
2023-01-26T00:51:13.262Z,0.00
2023-01-26T00:52:13.324Z,0.00
2023-01-26T00:53:13.293Z,0.00
2023-01-26T00:54:13.246Z,0.00
2023-01-26T00:55:13.288Z,0.00
2023-01-26T00:56:14.207Z,0.00
2023-01-26T00:57:13.224Z,0.00
2023-01-26T00:58:13.217Z,0.00
2023-01-26T00:59:13.241Z,0.00
2023-01-26T01:00:13.460Z,0.00
2023-01-26T01:01:13.220Z,0.00
2023-01-26T01:02:13.215Z,0.00
2023-01-26T01:03:13.146Z,0.00
2023-01-26T01:04:13.112Z,0.00
2023-01-26T01:05:13.146Z,0.00
2023-01-26T01:06:13.121Z,0.00
2023-01-26T01:07:13.107Z,0.00
2023-01-26T01:08:13.132Z,0.00
2023-01-26T01:09:13.069Z,0.00
2023-01-26T01:10:13.409Z,0.00
2023-01-26T01:11:13.068Z,0.00
2023-01-26T01:12:13.167Z,0.00
2023-01-26T01:13:13.011Z,0.00
2023-01-26T01:14:13.042Z,0.00
2023-01-26T01:15:12.968Z,0.00
2023-01-26T01:16:13.058Z,0.00
2023-01-26T01:17:12.970Z,0.00
2023-01-26T01:18:12.921Z,0.00
2023-01-26T01:19:13.063Z,0.00
2023-01-26T01:20:13.194Z,0.00
2023-01-26T01:21:13.017Z,0.00
2023-01-26T01:22:12.875Z,0.00
2023-01-26T01:23:12.875Z,0.00
2023-01-26T01:24:12.938Z,0.00
2023-01-26T01:25:12.848Z,0.00
2023-01-26T01:26:12.910Z,0.00
2023-01-26T01:27:12.816Z,0.00
2023-01-26T01:28:12.813Z,0.00
2023-01-26T01:29:12.868Z,0.00
2023-01-26T01:30:13.178Z,0.00
2023-01-26T01:31:12.932Z,0.00
2023-01-26T01:32:12.787Z,0.00
2023-01-26T01:33:12.797Z,0.00
2023-01-26T01:34:12.769Z,0.00
2023-01-26T01:35:12.743Z,0.00
2023-01-26T01:36:12.834Z,0.00
2023-01-26T01:37:12.696Z,0.00
2023-01-26T01:38:12.695Z,0.00
2023-01-26T01:39:12.659Z,0.00
2023-01-26T01:40:12.967Z,0.00
2023-01-26T01:41:12.660Z,0.00
2023-01-26T01:42:12.655Z,0.00
2023-01-26T01:43:12.645Z,0.00
2023-01-26T01:44:12.652Z,0.00
2023-01-26T01:45:12.598Z,0.00
2023-01-26T01:46:12.688Z,0.00
2023-01-26T01:47:12.603Z,0.00
2023-01-26T01:48:12.552Z,0.00
2023-01-26T01:49:12.564Z,0.00
2023-01-26T01:50:12.780Z,0.00
2023-01-26T01:51:12.505Z,0.00
2023-01-26T01:52:12.498Z,0.00
2023-01-26T01:53:12.509Z,0.00
2023-01-26T01:54:12.579Z,0.00
2023-01-26T01:55:12.461Z,0.00
2023-01-26T01:56:12.498Z,0.00
2023-01-26T01:57:12.420Z,0.00
2023-01-26T01:58:12.511Z,0.00
2023-01-26T01:59:12.508Z,0.00
2023-01-26T02:00:12.744Z,0.00
2023-01-26T02:01:12.545Z,0.00
2023-01-26T02:02:12.429Z,0.00
2023-01-26T02:03:12.376Z,0.00
2023-01-26T02:04:12.363Z,0.00
2023-01-26T02:05:12.334Z,0.00
2023-01-26T02:06:12.374Z,0.00
2023-01-26T02:07:12.328Z,0.00
2023-01-26T02:08:12.290Z,0.00
2023-01-26T02:09:12.271Z,0.00
2023-01-26T02:10:12.600Z,0.00
2023-01-26T02:11:30.943Z,0.00
2023-01-26T02:12:33.256Z,0.00
2023-01-26T02:13:12.219Z,0.00
2023-01-26T02:14:12.206Z,0.00
2023-01-26T02:15:12.216Z,0.00
2023-01-26T02:16:12.321Z,0.00
2023-01-26T02:17:12.300Z,0.00
2023-01-26T02:18:12.191Z,0.00
2023-01-26T02:19:12.186Z,0.00
2023-01-26T02:20:12.552Z,0.00
2023-01-26T02:21:12.168Z,0.00
2023-01-26T02:22:12.096Z,0.00
2023-01-26T02:23:12.131Z,0.00
2023-01-26T02:24:12.144Z,0.00
2023-01-26T02:25:12.075Z,0.00
2023-01-26T02:26:12.068Z,0.00
2023-01-26T02:27:12.042Z,0.00
2023-01-26T02:28:12.097Z,0.00
2023-01-26T02:29:12.113Z,0.00
2023-01-26T02:30:12.340Z,0.00
2023-01-26T02:31:12.143Z,0.00
2023-01-26T02:32:12.000Z,0.00
2023-01-26T02:33:11.976Z,0.00
2023-01-26T02:34:11.982Z,0.00
2023-01-26T02:35:11.965Z,0.00
2023-01-26T02:36:12.009Z,0.00
2023-01-26T02:37:11.964Z,0.00
2023-01-26T02:38:11.925Z,0.00
2023-01-26T02:39:11.930Z,0.00
2023-01-26T02:40:12.052Z,0.00
2023-01-26T02:41:11.874Z,0.00
2023-01-26T02:42:11.897Z,0.00
2023-01-26T02:43:11.833Z,0.00
2023-01-26T02:44:11.847Z,0.00
2023-01-26T02:45:11.816Z,0.00
2023-01-26T02:46:11.859Z,0.00
2023-01-26T02:47:11.787Z,0.00
2023-01-26T02:48:11.833Z,0.00
2023-01-26T02:49:11.793Z,0.00
2023-01-26T02:50:12.088Z,0.00
2023-01-26T02:51:11.764Z,0.00
2023-01-26T02:52:11.789Z,0.00
2023-01-26T02:53:11.711Z,0.00
2023-01-26T02:54:11.707Z,0.00
2023-01-26T02:55:11.733Z,0.00
2023-01-26T02:56:11.736Z,0.00
2023-01-26T02:57:11.681Z,0.00
2023-01-26T02:58:11.726Z,0.00
2023-01-26T02:59:11.621Z,0.00
2023-01-26T03:00:11.992Z,0.00
2023-01-26T03:01:11.659Z,0.00
2023-01-26T03:02:11.741Z,0.00
2023-01-26T03:03:11.586Z,0.00
2023-01-26T03:04:11.591Z,0.00
2023-01-26T03:05:11.597Z,0.00
2023-01-26T03:06:11.599Z,0.00
2023-01-26T03:07:11.618Z,0.00
2023-01-26T03:08:11.513Z,0.00
2023-01-26T03:09:11.559Z,0.00
2023-01-26T03:10:11.873Z,0.00
2023-01-26T03:11:11.508Z,0.00
2023-01-26T03:12:11.463Z,0.00
2023-01-26T03:13:11.515Z,0.00
2023-01-26T03:14:11.489Z,0.00
2023-01-26T03:15:11.487Z,0.00
2023-01-26T03:16:11.566Z,0.00
2023-01-26T03:17:11.467Z,0.00
2023-01-26T03:18:11.401Z,0.00
2023-01-26T03:19:11.393Z,0.00
2023-01-26T03:20:11.692Z,0.00
2023-01-26T03:21:11.384Z,0.00
2023-01-26T03:22:11.425Z,0.00
2023-01-26T03:23:11.344Z,0.00
2023-01-26T03:24:11.348Z,0.00
2023-01-26T03:25:11.299Z,0.00
2023-01-26T03:26:11.345Z,0.00
2023-01-26T03:27:11.307Z,0.00
2023-01-26T03:28:11.262Z,0.00
2023-01-26T03:29:11.276Z,0.00
2023-01-26T03:30:11.613Z,0.00
2023-01-26T03:31:11.301Z,0.00
2023-01-26T03:32:11.308Z,0.00
2023-01-26T03:33:11.192Z,0.00
2023-01-26T03:34:11.191Z,0.00
2023-01-26T03:35:11.167Z,0.00
2023-01-26T03:36:11.165Z,0.00
2023-01-26T03:37:11.175Z,0.00
2023-01-26T03:38:11.140Z,0.00
2023-01-26T03:39:11.194Z,0.00
2023-01-26T03:40:11.496Z,0.00
2023-01-26T03:41:11.117Z,0.00
2023-01-26T03:42:11.076Z,0.00
2023-01-26T03:43:11.108Z,0.00
2023-01-26T03:44:11.070Z,0.00
2023-01-26T03:45:11.135Z,0.00
2023-01-26T03:46:11.073Z,0.00
2023-01-26T03:47:11.050Z,0.00
2023-01-26T03:48:11.037Z,0.00
2023-01-26T03:49:11.092Z,0.00
2023-01-26T03:50:11.339Z,0.00
2023-01-26T03:51:11.006Z,0.00
2023-01-26T03:52:10.970Z,0.00
2023-01-26T03:53:10.988Z,0.00
2023-01-26T03:54:10.939Z,0.00
2023-01-26T03:55:10.969Z,0.00
2023-01-26T03:56:10.947Z,0.00
2023-01-26T03:57:10.877Z,0.00
2023-01-26T03:58:10.877Z,0.00
2023-01-26T03:59:10.904Z,0.00
2023-01-26T04:00:11.239Z,0.00
2023-01-26T04:01:10.879Z,0.00
2023-01-26T04:02:10.863Z,0.00
2023-01-26T04:03:10.844Z,0.00
2023-01-26T04:04:10.827Z,0.00
2023-01-26T04:05:10.771Z,0.00
2023-01-26T04:06:16.197Z,0.00
2023-01-26T04:07:10.784Z,0.00
2023-01-26T04:08:10.753Z,0.00
2023-01-26T04:09:10.745Z,0.00
2023-01-26T04:10:11.053Z,0.00
2023-01-26T04:11:10.743Z,0.00
2023-01-26T04:12:10.704Z,0.00
2023-01-26T04:13:10.718Z,0.00
2023-01-26T04:14:10.824Z,0.00
2023-01-26T04:15:10.709Z,0.00
2023-01-26T04:16:10.710Z,0.00
2023-01-26T04:17:10.705Z,0.00
2023-01-26T04:18:10.688Z,0.00
2023-01-26T04:19:10.626Z,0.00
2023-01-26T04:20:10.859Z,0.00
2023-01-26T04:21:10.639Z,0.00
2023-01-26T04:22:10.586Z,0.00
2023-01-26T04:23:10.582Z,0.00
2023-01-26T04:24:10.607Z,0.00
2023-01-26T04:25:10.626Z,0.00
2023-01-26T04:26:10.622Z,0.00
2023-01-26T04:27:10.534Z,0.00
2023-01-26T04:28:10.612Z,0.00
2023-01-26T04:29:10.551Z,0.00
2023-01-26T04:30:10.743Z,0.00
2023-01-26T04:31:10.456Z,0.00
2023-01-26T04:32:11.274Z,0.00
2023-01-26T04:33:10.444Z,0.00
2023-01-26T04:34:10.456Z,0.00
2023-01-26T04:35:10.408Z,0.00
2023-01-26T04:36:10.459Z,0.00
2023-01-26T04:37:10.423Z,0.00
2023-01-26T04:38:10.397Z,0.00
2023-01-26T04:39:10.363Z,0.00
2023-01-26T04:40:10.716Z,0.00
2023-01-26T04:41:10.344Z,0.00
2023-01-26T04:42:10.324Z,0.00
2023-01-26T04:43:10.343Z,0.00
2023-01-26T04:44:10.323Z,0.00
2023-01-26T04:45:10.278Z,0.00
2023-01-26T04:46:10.400Z,0.00
2023-01-26T04:47:10.440Z,0.00
2023-01-26T04:48:10.302Z,0.00
2023-01-26T04:49:10.243Z,0.00
2023-01-26T04:50:10.769Z,0.00
2023-01-26T04:51:10.182Z,0.00
2023-01-26T04:52:10.230Z,0.00
2023-01-26T04:53:10.208Z,0.00
2023-01-26T04:54:10.152Z,0.00
2023-01-26T04:55:10.154Z,0.00
2023-01-26T04:56:10.142Z,0.00
2023-01-26T04:57:10.221Z,0.00
2023-01-26T04:58:10.145Z,0.00
2023-01-26T04:59:10.089Z,0.00
2023-01-26T05:00:10.496Z,0.00
2023-01-26T05:01:10.097Z,0.00
2023-01-26T05:02:10.082Z,0.00
2023-01-26T05:03:10.467Z,0.00
2023-01-26T05:04:10.092Z,0.00
2023-01-26T05:05:10.148Z,0.00
2023-01-26T05:06:10.276Z,0.00
2023-01-26T05:07:10.015Z,0.00
2023-01-26T05:08:10.016Z,0.00
2023-01-26T05:09:10.028Z,0.00
2023-01-26T05:10:10.534Z,0.00
2023-01-26T05:11:09.950Z,0.00
2023-01-26T05:12:09.959Z,0.00
2023-01-26T05:13:09.933Z,0.00
2023-01-26T05:14:09.918Z,0.00
2023-01-26T05:15:09.883Z,0.00
2023-01-26T05:16:09.994Z,0.00
2023-01-26T05:17:10.029Z,0.00
2023-01-26T05:18:09.856Z,0.00
2023-01-26T05:19:09.830Z,0.00
2023-01-26T05:20:10.250Z,0.00
2023-01-26T05:21:09.830Z,0.00
2023-01-26T05:22:12.355Z,0.00
2023-01-26T05:23:09.835Z,0.00
2023-01-26T05:24:09.944Z,0.00
2023-01-26T05:25:09.861Z,0.00
2023-01-26T05:26:09.794Z,0.00
2023-01-26T05:27:09.767Z,0.00
2023-01-26T05:28:09.750Z,0.00
2023-01-26T05:29:09.779Z,0.00
2023-01-26T05:30:11.999Z,0.00
2023-01-26T05:31:09.915Z,0.00
2023-01-26T05:32:09.697Z,0.00
2023-01-26T05:33:09.683Z,0.00
2023-01-26T05:34:09.784Z,0.00
2023-01-26T05:35:09.651Z,0.00
2023-01-26T05:36:09.635Z,0.00
2023-01-26T05:37:09.621Z,0.00
2023-01-26T05:38:09.630Z,0.00
2023-01-26T05:39:09.583Z,0.00
2023-01-26T05:40:09.927Z,0.00
2023-01-26T05:41:09.604Z,0.00
2023-01-26T05:42:09.577Z,0.00
2023-01-26T05:43:09.545Z,0.00
2023-01-26T05:44:10.489Z,0.00
2023-01-26T05:45:09.743Z,0.00
2023-01-26T05:46:09.614Z,0.00
2023-01-26T05:47:09.548Z,0.00
2023-01-26T05:48:09.482Z,0.00
2023-01-26T05:49:09.497Z,0.00
2023-01-26T05:50:09.838Z,0.00
2023-01-26T05:51:09.449Z,0.00
2023-01-26T05:52:09.426Z,0.00
2023-01-26T05:53:09.440Z,0.00
2023-01-26T05:54:09.417Z,0.00
2023-01-26T05:55:09.517Z,0.00
2023-01-26T05:56:09.403Z,0.00
2023-01-26T05:57:09.353Z,0.00
2023-01-26T05:58:09.374Z,0.00
2023-01-26T05:59:09.369Z,0.00
2023-01-26T06:00:09.622Z,0.00
2023-01-26T06:01:09.313Z,0.00
2023-01-26T06:02:09.372Z,0.00
2023-01-26T06:03:09.287Z,0.00
2023-01-26T06:04:09.333Z,0.00
2023-01-26T06:05:09.282Z,0.00
2023-01-26T06:06:09.339Z,0.00
2023-01-26T06:07:09.244Z,0.00
2023-01-26T06:08:09.210Z,0.00
2023-01-26T06:09:09.340Z,0.00
2023-01-26T06:10:09.348Z,0.00
2023-01-26T06:11:09.179Z,0.00
2023-01-26T06:12:09.202Z,0.00
2023-01-26T06:13:09.241Z,0.00
2023-01-26T06:14:09.214Z,0.00
2023-01-26T06:15:09.350Z,0.00
2023-01-26T06:16:09.149Z,0.00
2023-01-26T06:17:09.228Z,0.00
2023-01-26T06:18:09.161Z,0.00
2023-01-26T06:19:09.169Z,0.00
2023-01-26T06:20:09.391Z,0.00
2023-01-26T06:21:09.152Z,0.00
2023-01-26T06:22:09.043Z,0.00
2023-01-26T06:23:09.238Z,0.00
2023-01-26T06:24:09.081Z,0.00
2023-01-26T06:25:09.075Z,0.00
2023-01-26T06:26:10.863Z,0.00
2023-01-26T06:27:09.028Z,0.00
2023-01-26T06:28:09.010Z,0.00
2023-01-26T06:29:08.997Z,0.00
2023-01-26T06:30:09.248Z,0.00
2023-01-26T06:31:09.091Z,0.00
2023-01-26T06:32:08.917Z,0.00
2023-01-26T06:33:09.001Z,0.00
2023-01-26T06:34:08.935Z,0.00
2023-01-26T06:35:08.990Z,0.00
2023-01-26T06:36:08.950Z,0.00
2023-01-26T06:37:08.993Z,0.00
2023-01-26T06:38:08.829Z,0.00
2023-01-26T06:39:08.876Z,0.00
2023-01-26T06:40:09.112Z,0.00
2023-01-26T06:41:08.822Z,0.00
2023-01-26T06:42:08.890Z,0.00
2023-01-26T06:43:08.857Z,0.00
2023-01-26T06:44:08.911Z,0.00
2023-01-26T06:45:08.829Z,0.00
2023-01-26T06:46:08.916Z,0.00
2023-01-26T06:47:08.849Z,0.00
2023-01-26T06:48:08.774Z,0.00
2023-01-26T06:49:08.723Z,0.00
2023-01-26T06:50:09.059Z,0.00
2023-01-26T06:51:08.797Z,0.00
2023-01-26T06:52:08.844Z,0.00
2023-01-26T06:53:08.759Z,0.00
2023-01-26T06:54:08.679Z,0.00
2023-01-26T06:55:08.661Z,0.00
2023-01-26T06:56:08.643Z,0.00
2023-01-26T06:57:08.708Z,0.00
2023-01-26T06:58:08.630Z,0.00
2023-01-26T06:59:08.583Z,0.00
2023-01-26T07:00:08.747Z,0.00
2023-01-26T07:01:08.622Z,5.62
2023-01-26T07:02:08.594Z,5.62
2023-01-26T07:03:08.603Z,5.62
2023-01-26T07:04:08.520Z,5.62
2023-01-26T07:05:08.538Z,5.62
2023-01-26T07:06:08.522Z,5.62
2023-01-26T07:07:08.557Z,5.62
2023-01-26T07:08:08.451Z,11.25
2023-01-26T07:09:08.487Z,11.25
2023-01-26T07:10:08.801Z,11.25
2023-01-26T07:11:09.244Z,11.25
2023-01-26T07:12:08.462Z,11.25
2023-01-26T07:13:08.472Z,11.25
2023-01-26T07:14:08.475Z,11.25
2023-01-26T07:15:08.491Z,11.25
2023-01-26T07:16:08.484Z,11.25
2023-01-26T07:17:08.407Z,11.25
2023-01-26T07:18:08.421Z,11.25
2023-01-26T07:19:08.323Z,11.25
2023-01-26T07:20:08.687Z,11.25
2023-01-26T07:21:08.422Z,11.25
2023-01-26T07:22:08.316Z,11.25
2023-01-26T07:23:08.337Z,11.25
2023-01-26T07:24:08.377Z,11.25
2023-01-26T07:25:08.354Z,11.25
2023-01-26T07:26:08.234Z,11.25
2023-01-26T07:27:08.263Z,11.25
2023-01-26T07:28:08.185Z,11.25
2023-01-26T07:29:08.214Z,11.25
2023-01-26T07:30:08.361Z,11.25
2023-01-26T07:31:08.330Z,11.25
2023-01-26T07:32:08.188Z,11.25
2023-01-26T07:33:08.160Z,16.88
2023-01-26T07:34:08.161Z,16.88
2023-01-26T07:35:08.103Z,16.88
2023-01-26T07:36:08.103Z,16.88
2023-01-26T07:37:08.132Z,16.88
2023-01-26T07:38:08.099Z,16.88
2023-01-26T07:39:08.768Z,16.88
2023-01-26T07:40:08.063Z,16.88
2023-01-26T07:41:08.060Z,16.88
2023-01-26T07:42:08.083Z,16.88
2023-01-26T07:43:08.019Z,16.88
2023-01-26T07:44:08.150Z,11.25
2023-01-26T07:45:08.001Z,11.25
2023-01-26T07:46:08.023Z,11.25
2023-01-26T07:47:08.061Z,16.88
2023-01-26T07:48:07.933Z,16.88
2023-01-26T07:49:07.962Z,16.88
2023-01-26T07:50:07.983Z,16.88
2023-01-26T07:51:07.928Z,16.88
2023-01-26T07:52:07.926Z,16.88
2023-01-26T07:53:07.937Z,16.88
2023-01-26T07:54:07.898Z,16.88
2023-01-26T07:55:07.883Z,16.88
2023-01-26T07:56:07.851Z,16.88
2023-01-26T07:57:07.849Z,16.88
2023-01-26T07:58:07.820Z,16.88
2023-01-26T07:59:07.878Z,22.50
2023-01-26T08:00:07.777Z,22.50
2023-01-26T08:01:07.802Z,22.50
2023-01-26T08:02:07.820Z,22.50
2023-01-26T08:03:07.920Z,22.50
2023-01-26T08:04:07.733Z,22.50
2023-01-26T08:05:07.785Z,22.50
2023-01-26T08:06:09.628Z,22.50
2023-01-26T08:07:07.710Z,22.50
2023-01-26T08:08:07.703Z,28.12
2023-01-26T08:09:07.703Z,28.12
2023-01-26T08:10:07.670Z,28.12
2023-01-26T08:11:07.643Z,28.12
2023-01-26T08:12:07.655Z,28.12
2023-01-26T08:13:07.672Z,28.12
2023-01-26T08:14:07.619Z,28.12
2023-01-26T08:15:07.623Z,28.12
2023-01-26T08:16:07.622Z,33.75
2023-01-26T08:17:07.609Z,33.75
2023-01-26T08:18:07.571Z,33.75
2023-01-26T08:19:07.675Z,33.75
2023-01-26T08:20:07.532Z,33.75
2023-01-26T08:21:07.550Z,33.75
2023-01-26T08:22:07.566Z,33.75
2023-01-26T08:23:07.524Z,33.75
2023-01-26T08:24:07.579Z,33.75
2023-01-26T08:25:07.469Z,39.38
2023-01-26T08:26:07.575Z,39.38
2023-01-26T08:27:07.490Z,33.75
2023-01-26T08:28:07.480Z,39.38
2023-01-26T08:29:07.435Z,39.38
2023-01-26T08:30:07.384Z,39.38
2023-01-26T08:31:07.433Z,45.00
2023-01-26T08:32:07.728Z,50.62
2023-01-26T08:33:07.440Z,56.25
2023-01-26T08:34:07.395Z,56.25
2023-01-26T08:35:07.348Z,56.25
2023-01-26T08:36:07.355Z,50.62
2023-01-26T08:37:07.348Z,50.62
2023-01-26T08:38:07.322Z,50.62
2023-01-26T08:39:07.337Z,50.62
2023-01-26T08:40:07.359Z,50.62
2023-01-26T08:41:07.384Z,45.00
2023-01-26T08:42:07.438Z,50.62
2023-01-26T08:43:07.236Z,50.62
2023-01-26T08:44:07.241Z,50.62
2023-01-26T08:45:07.268Z,50.62
2023-01-26T08:46:07.294Z,45.00
2023-01-26T08:47:07.254Z,45.00
2023-01-26T08:48:07.235Z,45.00
2023-01-26T08:49:07.189Z,39.38
2023-01-26T08:50:07.180Z,39.38
2023-01-26T08:51:07.153Z,39.38
2023-01-26T08:52:07.117Z,39.38
2023-01-26T08:53:07.354Z,45.00
2023-01-26T08:54:07.096Z,45.00
2023-01-26T08:55:07.112Z,45.00
2023-01-26T08:56:07.094Z,45.00
2023-01-26T08:57:07.251Z,50.62
2023-01-26T08:58:07.233Z,50.62
2023-01-26T08:59:07.060Z,50.62
2023-01-26T09:00:07.094Z,50.62
2023-01-26T09:01:07.125Z,50.62
2023-01-26T09:02:07.109Z,50.62
2023-01-26T09:03:07.128Z,50.62
2023-01-26T09:04:06.990Z,50.62
2023-01-26T09:05:07.015Z,50.62
2023-01-26T09:06:06.948Z,50.62
2023-01-26T09:07:06.999Z,50.62
2023-01-26T09:08:06.945Z,50.62
2023-01-26T09:09:07.051Z,50.62
2023-01-26T09:10:06.905Z,50.62
2023-01-26T09:11:06.865Z,45.00
2023-01-26T09:12:06.896Z,45.00
2023-01-26T09:13:06.885Z,45.00
2023-01-26T09:14:06.858Z,45.00
2023-01-26T09:15:06.849Z,45.00
2023-01-26T09:16:06.823Z,45.00
2023-01-26T09:17:06.839Z,45.00
2023-01-26T09:18:06.787Z,45.00
2023-01-26T09:19:06.823Z,45.00
2023-01-26T09:20:06.875Z,50.62
2023-01-26T09:21:06.776Z,50.62
2023-01-26T09:22:06.773Z,50.62
2023-01-26T09:23:06.735Z,50.62
2023-01-26T09:24:06.765Z,56.25
2023-01-26T09:25:06.777Z,56.25
2023-01-26T09:26:06.670Z,56.25
2023-01-26T09:27:06.723Z,61.88
2023-01-26T09:28:06.653Z,61.88
2023-01-26T09:29:06.669Z,61.88
2023-01-26T09:30:06.744Z,61.88
2023-01-26T09:31:06.730Z,67.50
2023-01-26T09:32:06.598Z,67.50
2023-01-26T09:33:06.609Z,73.12
2023-01-26T09:34:06.599Z,73.12
2023-01-26T09:35:06.637Z,78.75
2023-01-26T09:36:06.633Z,78.75
2023-01-26T09:37:06.617Z,84.38
2023-01-26T09:38:06.686Z,84.38
2023-01-26T09:39:06.511Z,84.38
2023-01-26T09:40:06.529Z,84.38
2023-01-26T09:41:06.537Z,84.38
2023-01-26T09:42:06.485Z,84.38
2023-01-26T09:43:07.148Z,84.38
2023-01-26T09:44:06.470Z,78.75
2023-01-26T09:45:06.478Z,78.75
2023-01-26T09:46:06.559Z,78.75
2023-01-26T09:47:06.459Z,84.38
2023-01-26T09:48:06.486Z,84.38
2023-01-26T09:49:06.405Z,90.00
2023-01-26T09:50:06.391Z,90.00
2023-01-26T09:51:06.410Z,90.00
2023-01-26T09:52:06.380Z,95.62
2023-01-26T09:53:06.362Z,95.62
2023-01-26T09:54:06.331Z,95.62
2023-01-26T09:55:06.335Z,101.25
2023-01-26T09:56:06.329Z,106.88
2023-01-26T09:57:06.293Z,106.88
2023-01-26T09:58:06.290Z,106.88
2023-01-26T09:59:06.318Z,106.88
2023-01-26T10:00:06.250Z,106.88
2023-01-26T10:01:06.266Z,106.88
2023-01-26T10:02:06.229Z,106.88
2023-01-26T10:03:06.248Z,106.88
2023-01-26T10:04:06.252Z,112.50
2023-01-26T10:05:06.199Z,112.50
2023-01-26T10:06:06.172Z,112.50
2023-01-26T10:07:06.191Z,112.50
2023-01-26T10:08:06.190Z,118.12
2023-01-26T10:09:06.168Z,118.12
2023-01-26T10:10:06.131Z,118.12
2023-01-26T10:11:06.135Z,118.12
2023-01-26T10:12:06.088Z,112.50
2023-01-26T10:13:06.101Z,112.50
2023-01-26T10:14:06.114Z,106.88
2023-01-26T10:15:06.073Z,106.88
2023-01-26T10:16:06.087Z,106.88
2023-01-26T10:17:06.055Z,101.25
2023-01-26T10:18:06.026Z,101.25
2023-01-26T10:19:06.014Z,101.25
2023-01-26T10:20:05.997Z,101.25
2023-01-26T10:21:06.039Z,101.25
2023-01-26T10:22:06.016Z,95.62
2023-01-26T10:23:05.989Z,101.25
2023-01-26T10:24:06.040Z,101.25
2023-01-26T10:25:05.957Z,101.25
2023-01-26T10:26:06.004Z,101.25
2023-01-26T10:27:05.902Z,95.62
2023-01-26T10:28:05.954Z,90.00
2023-01-26T10:29:06.006Z,95.62
2023-01-26T10:30:05.893Z,95.62
2023-01-26T10:31:05.971Z,101.25
2023-01-26T10:32:05.866Z,101.25
2023-01-26T10:33:05.891Z,101.25
2023-01-26T10:34:05.850Z,101.25
2023-01-26T10:35:05.875Z,106.88
2023-01-26T10:36:05.861Z,106.88
2023-01-26T10:37:05.774Z,101.25
2023-01-26T10:38:05.776Z,101.25
2023-01-26T10:39:05.761Z,101.25
2023-01-26T10:40:05.749Z,101.25
2023-01-26T10:41:05.736Z,101.25
2023-01-26T10:42:05.735Z,101.25
2023-01-26T10:43:05.722Z,101.25
2023-01-26T10:44:05.780Z,101.25
2023-01-26T10:45:05.679Z,101.25
2023-01-26T10:46:05.727Z,101.25
2023-01-26T10:47:05.684Z,106.88
2023-01-26T10:48:05.683Z,106.88
2023-01-26T10:49:05.635Z,106.88
2023-01-26T10:50:05.679Z,101.25
2023-01-26T10:51:05.600Z,101.25
2023-01-26T10:52:05.624Z,95.62
2023-01-26T10:53:05.569Z,101.25
2023-01-26T10:54:05.594Z,101.25
2023-01-26T10:55:05.548Z,95.62
2023-01-26T10:56:05.582Z,95.62
2023-01-26T10:57:05.516Z,95.62
2023-01-26T10:58:05.560Z,90.00
2023-01-26T10:59:05.488Z,84.38
2023-01-26T11:00:05.499Z,84.38
2023-01-26T11:01:05.481Z,84.38
2023-01-26T11:02:05.479Z,84.38
2023-01-26T11:03:05.589Z,84.38
2023-01-26T11:04:05.451Z,84.38
2023-01-26T11:05:05.423Z,84.38
2023-01-26T11:06:05.437Z,90.00
2023-01-26T11:07:05.400Z,95.62
2023-01-26T11:08:05.400Z,95.62
2023-01-26T11:09:05.382Z,101.25
2023-01-26T11:10:05.377Z,101.25
2023-01-26T11:11:05.355Z,106.88
2023-01-26T11:12:05.347Z,106.88
2023-01-26T11:13:05.325Z,112.50
2023-01-26T11:14:05.329Z,118.12
2023-01-26T11:15:05.355Z,118.12
2023-01-26T11:16:05.373Z,118.12
2023-01-26T11:17:05.296Z,118.12
2023-01-26T11:18:05.267Z,118.12
2023-01-26T11:19:05.263Z,123.75
2023-01-26T11:20:05.306Z,123.75
2023-01-26T11:21:05.238Z,123.75
2023-01-26T11:22:05.236Z,129.38
2023-01-26T11:23:05.192Z,135.00
2023-01-26T11:24:05.292Z,135.00
2023-01-26T11:25:05.202Z,135.00
2023-01-26T11:26:05.162Z,140.62
2023-01-26T11:27:05.261Z,140.62
2023-01-26T11:28:05.185Z,140.62
2023-01-26T11:29:05.114Z,140.62
2023-01-26T11:30:05.127Z,140.62
2023-01-26T11:31:05.171Z,135.00
2023-01-26T11:32:05.106Z,135.00
2023-01-26T11:33:05.074Z,123.75
2023-01-26T11:34:05.047Z,118.12
2023-01-26T11:35:05.043Z,112.50
2023-01-26T11:36:05.052Z,112.50
2023-01-26T11:37:05.121Z,112.50
2023-01-26T11:38:05.140Z,112.50
2023-01-26T11:39:04.991Z,118.12
2023-01-26T11:40:04.979Z,118.12
2023-01-26T11:41:04.983Z,118.12
2023-01-26T11:42:05.007Z,123.75
2023-01-26T11:43:04.983Z,123.75
2023-01-26T11:44:04.927Z,123.75
2023-01-26T11:45:04.936Z,129.38
2023-01-26T11:46:04.952Z,135.00
2023-01-26T11:47:04.879Z,140.62
2023-01-26T11:48:04.861Z,151.88
2023-01-26T11:49:04.846Z,157.50
2023-01-26T11:50:04.883Z,157.50
2023-01-26T11:51:05.801Z,146.25
2023-01-26T11:52:04.871Z,135.00
2023-01-26T11:53:04.820Z,123.75
2023-01-26T11:54:04.797Z,123.75
2023-01-26T11:55:04.773Z,118.12
2023-01-26T11:56:04.773Z,112.50
2023-01-26T11:57:04.796Z,123.75
2023-01-26T11:58:04.778Z,129.38
2023-01-26T11:59:04.737Z,129.38
2023-01-26T12:00:04.728Z,123.75
2023-01-26T12:01:04.712Z,123.75
2023-01-26T12:02:04.790Z,129.38
2023-01-26T12:03:04.788Z,135.00
2023-01-26T12:04:04.689Z,135.00
2023-01-26T12:05:04.676Z,135.00
2023-01-26T12:06:04.669Z,135.00
2023-01-26T12:07:04.653Z,135.00
2023-01-26T12:08:04.641Z,129.38
2023-01-26T12:09:04.612Z,129.38
2023-01-26T12:10:04.671Z,123.75
2023-01-26T12:11:04.588Z,118.12
2023-01-26T12:12:04.588Z,112.50
2023-01-26T12:13:04.634Z,106.88
2023-01-26T12:14:04.591Z,106.88
2023-01-26T12:15:06.033Z,101.25
2023-01-26T12:16:04.672Z,95.62
2023-01-26T12:17:17.111Z,84.38
2023-01-26T12:18:04.561Z,78.75
2023-01-26T12:19:11.054Z,78.75
2023-01-26T12:20:04.616Z,84.38
2023-01-26T12:21:04.504Z,84.38
2023-01-26T12:22:04.513Z,90.00
2023-01-26T12:23:04.472Z,90.00
2023-01-26T12:24:04.508Z,84.38
2023-01-26T12:25:20.586Z,73.12
2023-01-26T12:26:04.415Z,73.12
2023-01-26T12:27:04.380Z,73.12
2023-01-26T12:28:04.380Z,67.50
2023-01-26T12:29:04.428Z,67.50
2023-01-26T12:30:04.343Z,67.50
2023-01-26T12:31:04.471Z,67.50
2023-01-26T12:32:04.328Z,67.50
2023-01-26T12:33:04.312Z,67.50
2023-01-26T12:34:04.318Z,67.50
2023-01-26T12:35:04.285Z,67.50
2023-01-26T12:36:04.306Z,67.50
2023-01-26T12:37:04.281Z,67.50
2023-01-26T12:38:17.331Z,67.50
2023-01-26T12:39:04.254Z,67.50
2023-01-26T12:40:04.226Z,67.50
2023-01-26T12:41:04.183Z,67.50
2023-01-26T12:42:04.211Z,67.50
2023-01-26T12:43:04.173Z,67.50
2023-01-26T12:44:04.192Z,67.50
2023-01-26T12:45:04.148Z,67.50
2023-01-26T12:46:04.235Z,67.50
2023-01-26T12:47:04.137Z,67.50
2023-01-26T12:48:04.117Z,67.50
2023-01-26T12:49:04.122Z,67.50
2023-01-26T12:50:04.143Z,61.88
2023-01-26T12:51:04.084Z,61.88
2023-01-26T12:52:04.059Z,56.25
2023-01-26T12:53:04.082Z,56.25
2023-01-26T12:54:04.028Z,56.25
2023-01-26T12:55:04.014Z,56.25
2023-01-26T12:56:04.073Z,56.25
2023-01-26T12:57:04.047Z,56.25
2023-01-26T12:58:03.997Z,56.25
2023-01-26T12:59:04.058Z,56.25
2023-01-26T13:00:03.982Z,56.25
2023-01-26T13:01:04.068Z,50.62
2023-01-26T13:02:04.019Z,50.62